Time;durP1;ratioP1;P1;durP2;ratioP2;P2;SDS_P1;SDS_P2;PMS_P1;PMS_P2;Temp;Humidity;BMP_temperature;BMP_pressure;BME280_temperature;BME280_humidity;BME280_pressure;Samples;Min_cycle;Max_cycle;Signal;HPM_P1;HPM_P2
2023/09/14 00:01:00;;;;;;;5.00;3.10;;;;;;;;;;5071900;28;20055;-89
2023/09/14 00:03:29;;;;;;;3.63;2.88;;;;;;;;;;5082870;28;20036;-89
2023/09/14 00:05:57;;;;;;;6.35;2.92;;;;;;;;;;5087858;28;20531;-89
2023/09/14 00:08:29;;;;;;;4.15;2.55;;;;;;;;;;5090981;28;20424;-89
2023/09/14 00:11:02;;;;;;;5.30;3.10;;;;;;;;;;5077373;28;20052;-88
2023/09/14 00:13:29;;;;;;;5.55;3.30;;;;;;;;;;5090410;28;20051;-89
2023/09/14 00:15:57;;;;;;;7.10;3.45;;;;;;;;;;5091809;28;20075;-89
2023/09/14 00:18:27;;;;;;;3.75;2.58;;;;;;;;;;5081681;28;21639;-89
2023/09/14 00:20:56;;;;;;;3.55;3.25;;;;;;;;;;5072340;28;20059;-89
2023/09/14 00:23:25;;;;;;;5.03;2.60;;;;;;;;;;5088623;28;20044;-89
2023/09/14 00:25:54;;;;;;;9.43;3.10;;;;;;;;;;5088269;28;20047;-88
2023/09/14 00:28:21;;;;;;;6.70;3.67;;;;;;;;;;5091397;28;20060;-89
2023/09/14 00:30:51;;;;;;;7.50;2.50;;;;;;;;;;5082004;28;20044;-90
2023/09/14 00:33:19;;;;;;;5.78;3.42;;;;;;;;;;5084809;28;20048;-88
2023/09/14 00:35:47;;;;;;;9.07;3.15;;;;;;;;;;5083655;28;20058;-89
2023/09/14 00:38:14;;;;;;;6.07;2.80;;;;;;;;;;5085753;28;20063;-89
2023/09/14 00:40:45;;;;;;;5.70;3.38;;;;;;;;;;5085935;28;20036;-89
2023/09/14 00:43:13;;;;;;;4.85;3.42;;;;;;;;;;5086908;28;20052;-89
2023/09/14 00:45:43;;;;;;;4.18;2.63;;;;;;;;;;5087920;28;20408;-88
2023/09/14 00:48:11;;;;;;;6.95;3.17;;;;;;;;;;5089580;28;20047;-89
2023/09/14 00:50:39;;;;;;;4.50;3.20;;;;;;;;;;5089677;28;20056;-88
2023/09/14 00:53:09;;;;;;;5.95;2.95;;;;;;;;;;5080883;28;20051;-89
2023/09/14 00:55:39;;;;;;;4.32;2.83;;;;;;;;;;5094366;28;20074;-88
2023/09/14 00:58:14;;;;;;;5.13;2.67;;;;;;;;;;5081386;28;20044;-89
2023/09/14 01:00:43;;;;;;;3.42;2.97;;;;;;;;;;5082472;28;20119;-88
2023/09/14 01:03:11;;;;;;;5.63;3.53;;;;;;;;;;5084713;28;20063;-88
2023/09/14 01:05:41;;;;;;;3.95;3.25;;;;;;;;;;5082824;28;20423;-88
2023/09/14 01:08:08;;;;;;;4.80;2.85;;;;;;;;;;5074885;28;20056;-88
2023/09/14 01:10:36;;;;;;;4.15;3.35;;;;;;;;;;5081594;28;20044;-88
2023/09/14 01:13:03;;;;;;;5.35;3.10;;;;;;;;;;5089703;28;20070;-88
2023/09/14 01:15:36;;;;;;;7.78;4.20;;;;;;;;;;5085403;28;20047;-88
2023/09/14 01:18:07;;;;;;;3.37;2.97;;;;;;;;;;5088258;28;20059;-88
2023/09/14 01:21:14;;;;;;;7.93;3.60;;;;;;;;;;5087012;28;20044;-89
2023/09/14 01:23:49;;;;;;;4.18;2.88;;;;;;;;;;5011083;28;20049;-88
2023/09/14 01:26:19;;;;;;;6.22;4.03;;;;;;;;;;5070839;28;20059;-88
2023/09/14 01:28:46;;;;;;;4.38;3.38;;;;;;;;;;5087101;28;20048;-88
2023/09/14 01:31:13;;;;;;;7.50;3.72;;;;;;;;;;5088177;28;20059;-88
2023/09/14 01:33:41;;;;;;;6.03;3.38;;;;;;;;;;5085459;28;20118;-88
2023/09/14 01:36:12;;;;;;;4.50;3.17;;;;;;;;;;5084117;28;20058;-88
2023/09/14 01:38:40;;;;;;;7.28;3.30;;;;;;;;;;5088305;28;20040;-89
2023/09/14 01:41:07;;;;;;;5.38;3.20;;;;;;;;;;5087640;28;20051;-88
2023/09/14 01:43:37;;;;;;;4.97;3.05;;;;;;;;;;5092315;28;20051;-88
2023/09/14 01:46:05;;;;;;;4.70;3.08;;;;;;;;;;5087705;28;20044;-89
2023/09/14 01:48:32;;;;;;;3.58;3.22;;;;;;;;;;5088605;28;20048;-88
2023/09/14 01:51:01;;;;;;;7.53;3.17;;;;;;;;;;5088233;28;20043;-88
2023/09/14 01:53:31;;;;;;;4.97;2.97;;;;;;;;;;5090986;28;20531;-89
2023/09/14 01:55:58;;;;;;;9.10;3.63;;;;;;;;;;5088195;28;20029;-88
2023/09/14 01:58:26;;;;;;;6.40;4.25;;;;;;;;;;5087591;28;20501;-89
2023/09/14 02:00:56;;;;;;;4.32;2.70;;;;;;;;;;5081715;28;20041;-88
2023/09/14 02:03:24;;;;;;;5.45;2.90;;;;;;;;;;5086635;28;20504;-88
2023/09/14 02:05:57;;;;;;;8.98;3.78;;;;;;;;;;5088339;28;20051;-88
2023/09/14 02:08:25;;;;;;;3.95;3.35;;;;;;;;;;5091307;28;20444;-88
2023/09/14 02:10:52;;;;;;;5.20;3.15;;;;;;;;;;5085592;28;20059;-88
2023/09/14 02:13:22;;;;;;;3.50;3.20;;;;;;;;;;5087725;28;20044;-88
2023/09/14 02:15:52;;;;;;;6.45;2.90;;;;;;;;;;5093068;28;20055;-89
2023/09/14 02:18:20;;;;;;;3.88;2.50;;;;;;;;;;5103465;28;20059;-89
2023/09/14 02:20:47;;;;;;;6.20;3.53;;;;;;;;;;5101078;28;20048;-88
2023/09/14 02:23:16;;;;;;;6.03;3.25;;;;;;;;;;5113175;28;20040;-90
2023/09/14 02:25:44;;;;;;;4.40;3.00;;;;;;;;;;5089598;28;20051;-89
2023/09/14 02:28:13;;;;;;;6.75;4.07;;;;;;;;;;5087691;28;20524;-88
2023/09/14 02:30:40;;;;;;;9.35;3.90;;;;;;;;;;5084043;28;20610;-88
2023/09/14 02:33:08;;;;;;;4.70;3.20;;;;;;;;;;5084346;28;20052;-89
2023/09/14 02:35:40;;;;;;;5.57;3.47;;;;;;;;;;5084376;28;20565;-89
2023/09/14 02:38:09;;;;;;;5.15;3.30;;;;;;;;;;5085867;28;20043;-88
2023/09/14 02:40:37;;;;;;;5.85;3.72;;;;;;;;;;5087554;28;20074;-88
2023/09/14 02:43:04;;;;;;;4.35;3.42;;;;;;;;;;5086020;28;20043;-88
2023/09/14 02:45:32;;;;;;;6.95;3.20;;;;;;;;;;5080447;28;20040;-88
2023/09/14 02:47:59;;;;;;;4.20;2.88;;;;;;;;;;5081361;28;20059;-88
2023/09/14 02:50:27;;;;;;;5.30;2.70;;;;;;;;;;5086001;28;20055;-88
2023/09/14 02:52:56;;;;;;;7.15;2.42;;;;;;;;;;5087104;28;20067;-89
2023/09/14 02:55:26;;;;;;;4.85;3.15;;;;;;;;;;5087228;28;20048;-88
2023/09/14 02:57:53;;;;;;;4.07;2.63;;;;;;;;;;5084000;28;20052;-89
2023/09/14 03:00:20;;;;;;;6.97;3.08;;;;;;;;;;5083429;28;20067;-88
2023/09/14 03:02:49;;;;;;;6.70;2.85;;;;;;;;;;5088377;28;20070;-89
2023/09/14 03:05:16;;;;;;;3.53;2.97;;;;;;;;;;5080301;28;20048;-88
2023/09/14 03:07:44;;;;;;;4.97;3.97;;;;;;;;;;5085330;28;20512;-88
2023/09/14 03:10:13;;;;;;;9.13;3.40;;;;;;;;;;5083598;28;20440;-88
2023/09/14 03:12:40;;;;;;;6.78;4.00;;;;;;;;;;5081335;28;20048;-88
2023/09/14 03:15:08;;;;;;;6.72;2.65;;;;;;;;;;5086953;28;20052;-88
2023/09/14 03:17:36;;;;;;;7.13;3.58;;;;;;;;;;5063990;28;20079;-89
2023/09/14 03:20:07;;;;;;;6.30;2.50;;;;;;;;;;5088545;28;20055;-89
2023/09/14 03:22:35;;;;;;;6.88;2.97;;;;;;;;;;5088494;28;20516;-88
2023/09/14 03:25:02;;;;;;;3.10;2.55;;;;;;;;;;5089175;28;20049;-88
2023/09/14 03:27:32;;;;;;;6.10;2.92;;;;;;;;;;5088316;28;20051;-88
2023/09/14 03:30:00;;;;;;;4.60;2.40;;;;;;;;;;5087642;28;20059;-88
2023/09/14 03:32:27;;;;;;;5.72;2.63;;;;;;;;;;5091551;28;20048;-89
2023/09/14 03:34:54;;;;;;;8.68;3.75;;;;;;;;;;5090580;28;20047;-88
2023/09/14 03:37:21;;;;;;;5.07;3.28;;;;;;;;;;5088856;28;20063;-88
2023/09/14 03:39:49;;;;;;;4.40;2.50;;;;;;;;;;5090930;28;20040;-88
2023/09/14 03:42:17;;;;;;;8.05;2.95;;;;;;;;;;5085905;28;20052;-89
2023/09/14 03:44:46;;;;;;;8.65;3.70;;;;;;;;;;5082100;28;20051;-88
2023/09/14 03:47:13;;;;;;;5.05;2.58;;;;;;;;;;5088086;28;20048;-88
2023/09/14 03:49:40;;;;;;;4.75;3.20;;;;;;;;;;5090016;28;20048;-88
2023/09/14 03:52:08;;;;;;;4.40;3.58;;;;;;;;;;5091005;28;20115;-88
2023/09/14 03:54:35;;;;;;;8.95;2.83;;;;;;;;;;5091979;28;20051;-88
2023/09/14 03:57:03;;;;;;;6.30;2.95;;;;;;;;;;5088029;28;20052;-88
2023/09/14 03:59:33;;;;;;;3.58;2.72;;;;;;;;;;5092793;28;20115;-88
2023/09/14 04:02:02;;;;;;;7.05;3.72;;;;;;;;;;5089842;28;20051;-88
2023/09/14 04:04:30;;;;;;;4.07;2.58;;;;;;;;;;5086695;28;20420;-88
2023/09/14 04:06:57;;;;;;;5.47;2.53;;;;;;;;;;5090370;28;20048;-88
2023/09/14 04:09:29;;;;;;;3.90;2.58;;;;;;;;;;5089954;28;20036;-88
2023/09/14 04:11:57;;;;;;;3.08;2.55;;;;;;;;;;5092174;28;20052;-88
2023/09/14 04:14:25;;;;;;;6.25;2.92;;;;;;;;;;5085022;28;20058;-88
2023/09/14 04:16:57;;;;;;;2.50;2.25;;;;;;;;;;5091789;28;20508;-88
2023/09/14 04:19:26;;;;;;;5.28;3.10;;;;;;;;;;5098472;28;20044;-88
2023/09/14 04:21:54;;;;;;;6.15;2.78;;;;;;;;;;5085223;28;20604;-88
2023/09/14 04:24:21;;;;;;;4.78;2.72;;;;;;;;;;5086621;28;20115;-89
2023/09/14 04:26:49;;;;;;;4.60;2.97;;;;;;;;;;5087229;28;20048;-88
2023/09/14 04:29:16;;;;;;;5.78;2.45;;;;;;;;;;5087327;28;20059;-87
2023/09/14 04:31:44;;;;;;;4.15;2.05;;;;;;;;;;5081321;28;20051;-88
2023/09/14 04:34:11;;;;;;;5.25;2.72;;;;;;;;;;5086675;28;20060;-88
2023/09/14 04:36:40;;;;;;;6.30;2.97;;;;;;;;;;5090026;28;20051;-88
2023/09/14 04:39:08;;;;;;;3.65;1.85;;;;;;;;;;5093142;28;20055;-88
2023/09/14 04:41:36;;;;;;;7.75;2.65;;;;;;;;;;5088350;28;20063;-88
2023/09/14 04:44:04;;;;;;;2.65;2.00;;;;;;;;;;5087473;28;20044;-88
2023/09/14 04:46:32;;;;;;;3.63;2.58;;;;;;;;;;5078932;28;20644;-87
2023/09/14 04:48:59;;;;;;;2.38;2.15;;;;;;;;;;5084641;28;20040;-88
2023/09/14 04:51:27;;;;;;;2.72;2.15;;;;;;;;;;5090501;28;20051;-89
2023/09/14 04:53:56;;;;;;;3.20;2.60;;;;;;;;;;5089327;28;20044;-89
2023/09/14 04:56:25;;;;;;;4.32;2.42;;;;;;;;;;5087056;28;20040;-88
2023/09/14 04:58:53;;;;;;;3.53;2.75;;;;;;;;;;5085201;28;20047;-87
2023/09/14 05:01:20;;;;;;;2.90;2.60;;;;;;;;;;5079844;28;20048;-90
2023/09/14 05:03:49;;;;;;;3.33;2.33;;;;;;;;;;5089128;28;20059;-89
2023/09/14 05:06:17;;;;;;;7.18;2.88;;;;;;;;;;5084916;28;20050;-88
2023/09/14 05:08:45;;;;;;;5.57;2.83;;;;;;;;;;5085030;28;20048;-88
2023/09/14 05:11:14;;;;;;;5.05;3.15;;;;;;;;;;5087132;28;20056;-88
2023/09/14 05:13:41;;;;;;;5.47;2.75;;;;;;;;;;5076771;28;20044;-89
2023/09/14 05:16:08;;;;;;;4.53;2.53;;;;;;;;;;5085943;28;20055;-87
2023/09/14 05:18:36;;;;;;;3.97;2.25;;;;;;;;;;5087054;28;20048;-88
2023/09/14 05:21:04;;;;;;;3.33;2.63;;;;;;;;;;5083312;28;20048;-88
2023/09/14 05:23:31;;;;;;;3.47;2.20;;;;;;;;;;5089255;28;20051;-88
2023/09/14 05:25:58;;;;;;;3.67;2.38;;;;;;;;;;5088589;28;20043;-86
2023/09/14 05:28:27;;;;;;;5.05;3.20;;;;;;;;;;5084777;28;20087;-89
2023/09/14 05:30:54;;;;;;;3.92;2.35;;;;;;;;;;5088658;28;20055;-87
2023/09/14 05:33:22;;;;;;;3.25;2.95;;;;;;;;;;5088517;28;20056;-88
2023/09/14 05:35:52;;;;;;;8.85;2.38;;;;;;;;;;5082582;28;20040;-88
2023/09/14 05:38:20;;;;;;;3.35;2.50;;;;;;;;;;5087121;28;20048;-87
2023/09/14 05:40:50;;;;;;;4.10;2.50;;;;;;;;;;5088296;28;20040;-88
2023/09/14 05:43:18;;;;;;;3.28;2.60;;;;;;;;;;5087448;28;20404;-88
2023/09/14 05:45:47;;;;;;;3.70;2.65;;;;;;;;;;5087790;28;20051;-87
2023/09/14 05:48:14;;;;;;;3.58;2.65;;;;;;;;;;5085410;28;20044;-88
2023/09/14 05:50:42;;;;;;;3.63;3.13;;;;;;;;;;5087513;28;20051;-87
2023/09/14 05:53:10;;;;;;;4.22;2.88;;;;;;;;;;5088549;28;20048;-87
2023/09/14 05:55:38;;;;;;;6.57;2.97;;;;;;;;;;5087767;28;20052;-87
2023/09/14 05:58:08;;;;;;;2.55;2.22;;;;;;;;;;5081452;28;20047;-88
2023/09/14 06:00:36;;;;;;;2.35;1.80;;;;;;;;;;5085981;28;20059;-89
2023/09/14 06:03:05;;;;;;;2.30;1.95;;;;;;;;;;5081091;28;20044;-88
2023/09/14 06:05:33;;;;;;;3.92;1.88;;;;;;;;;;5081773;28;20051;-90
2023/09/14 06:08:00;;;;;;;3.08;2.50;;;;;;;;;;5097039;27;20523;-89
2023/09/14 06:10:29;;;;;;;2.83;1.85;;;;;;;;;;5083238;28;20044;-89
2023/09/14 06:13:00;;;;;;;5.30;3.88;;;;;;;;;;5086027;28;20516;-90
2023/09/14 06:15:30;;;;;;;3.13;2.15;;;;;;;;;;5086180;28;20052;-89
2023/09/14 06:17:57;;;;;;;2.60;1.80;;;;;;;;;;5068075;28;20052;-89
2023/09/14 06:20:26;;;;;;;3.38;1.85;;;;;;;;;;5067949;28;20420;-89
2023/09/14 06:22:53;;;;;;;3.50;2.00;;;;;;;;;;5066177;28;20043;-89
2023/09/14 06:25:29;;;;;;;3.28;2.10;;;;;;;;;;5078941;28;20047;-89
2023/09/14 06:27:59;;;;;;;3.78;1.75;;;;;;;;;;5067088;28;20126;-89
2023/09/14 06:30:30;;;;;;;4.30;1.92;;;;;;;;;;5084265;28;20052;-89
2023/09/14 06:32:57;;;;;;;2.78;1.98;;;;;;;;;;5080099;28;20413;-89
2023/09/14 06:35:28;;;;;;;3.45;2.15;;;;;;;;;;5080334;28;20500;-90
2023/09/14 06:37:56;;;;;;;6.18;1.83;;;;;;;;;;5081847;28;20048;-90
2023/09/14 06:40:26;;;;;;;2.80;2.15;;;;;;;;;;5061767;28;20048;-89
2023/09/14 06:42:53;;;;;;;3.00;1.98;;;;;;;;;;5080844;28;20059;-89
2023/09/14 06:45:20;;;;;;;3.38;1.85;;;;;;;;;;5063178;28;20086;-89
2023/09/14 06:47:51;;;;;;;3.53;1.48;;;;;;;;;;5076659;28;20063;-89
2023/09/14 06:51:10;;;;;;;3.47;1.80;;;;;;;;;;5069365;28;20055;-90
2023/09/14 06:54:16;;;;;;;3.90;2.05;;;;;;;;;;5077388;28;20044;-89
2023/09/14 06:56:56;;;;;;;2.60;1.85;;;;;;;;;;5086456;28;20496;-89
2023/09/14 06:59:24;;;;;;;3.58;1.58;;;;;;;;;;5083702;28;20056;-89
2023/09/14 07:01:53;;;;;;;2.83;1.75;;;;;;;;;;5080894;28;20044;-89
2023/09/14 07:04:44;;;;;;;3.42;2.05;;;;;;;;;;5064308;28;20048;-89
2023/09/14 07:07:20;;;;;;;5.22;1.65;;;;;;;;;;5084133;28;20051;-89
2023/09/14 07:10:07;;;;;;;2.65;1.88;;;;;;;;;;5067407;28;20432;-90
2023/09/14 07:13:10;;;;;;;4.75;1.98;;;;;;;;;;5010146;28;20057;-89
2023/09/14 07:15:44;;;;;;;3.42;1.70;;;;;;;;;;4983424;28;20050;-89
2023/09/14 07:18:46;;;;;;;5.18;2.47;;;;;;;;;;5000303;28;20051;-89
2023/09/14 07:25:31;;;;;;;3.20;2.33;;;;;;;;;;4974771;28;20523;-90
2023/09/14 07:32:16;;;;;;;2.60;2.05;;;;;;;;;;4953101;28;20090;-90
2023/09/14 07:34:43;;;;;;;2.83;2.30;;;;;;;;;;4930420;28;20097;-89
2023/09/14 07:37:20;;;;;;;2.70;1.92;;;;;;;;;;4968393;28;20078;-89
2023/09/14 07:40:05;;;;;;;3.60;1.88;;;;;;;;;;4967854;28;20047;-90
2023/09/14 07:46:55;;;;;;;3.10;1.77;;;;;;;;;;4981584;28;20039;-90
2023/09/14 07:49:24;;;;;;;3.80;2.67;;;;;;;;;;4959593;28;20502;-90
2023/09/14 07:51:59;;;;;;;2.28;1.92;;;;;;;;;;4957854;28;20061;-89
2023/09/14 07:57:54;;;;;;;3.17;2.20;;;;;;;;;;5008558;28;20414;-89
2023/09/14 08:00:32;;;;;;;2.25;1.60;;;;;;;;;;5013195;28;20046;-90
2023/09/14 08:03:03;;;;;;;2.50;2.30;;;;;;;;;;4999584;28;20046;-90
2023/09/14 08:05:31;;;;;;;2.17;1.98;;;;;;;;;;5008446;28;20050;-90
2023/09/14 08:07:58;;;;;;;2.88;2.38;;;;;;;;;;5013825;28;20041;-89
2023/09/14 08:10:29;;;;;;;2.63;1.77;;;;;;;;;;5013181;28;20042;-90
2023/09/14 08:12:58;;;;;;;4.05;2.15;;;;;;;;;;5016118;28;20054;-90
2023/09/14 08:15:25;;;;;;;2.45;1.88;;;;;;;;;;5020999;28;20692;-90
2023/09/14 08:18:02;;;;;;;2.63;2.05;;;;;;;;;;5012755;28;20065;-90
2023/09/14 08:20:42;;;;;;;4.30;2.65;;;;;;;;;;5021962;28;20053;-90
2023/09/14 08:23:49;;;;;;;2.63;2.15;;;;;;;;;;5008315;28;20046;-90
2023/09/14 08:26:33;;;;;;;2.65;2.03;;;;;;;;;;5004962;28;20053;-89
2023/09/14 08:29:35;;;;;;;3.15;2.10;;;;;;;;;;5000489;28;20797;-90
2023/09/14 08:32:16;;;;;;;4.18;1.90;;;;;;;;;;5008102;28;20049;-90
2023/09/14 08:34:51;;;;;;;2.42;1.80;;;;;;;;;;5007973;28;20421;-90
2023/09/14 08:37:20;;;;;;;3.78;2.03;;;;;;;;;;5010709;28;20054;-90
2023/09/14 08:39:47;;;;;;;1.98;1.67;;;;;;;;;;5011013;28;20053;-90
2023/09/14 08:42:15;;;;;;;3.45;2.05;;;;;;;;;;5006877;28;20057;-90
2023/09/14 08:44:43;;;;;;;2.78;1.90;;;;;;;;;;5009298;28;20046;-90
2023/09/14 08:47:16;;;;;;;2.50;2.05;;;;;;;;;;5005310;28;20062;-90
2023/09/14 08:49:45;;;;;;;2.97;2.55;;;;;;;;;;5007260;28;20046;-90
2023/09/14 08:52:14;;;;;;;3.38;2.72;;;;;;;;;;5003119;28;20057;-90
2023/09/14 08:54:52;;;;;;;2.53;2.17;;;;;;;;;;5005775;28;20054;-90
2023/09/14 08:57:22;;;;;;;7.20;1.83;;;;;;;;;;5007083;28;20062;-90
2023/09/14 09:00:01;;;;;;;2.88;2.50;;;;;;;;;;5008480;28;20049;-90
2023/09/14 09:02:34;;;;;;;5.55;2.38;;;;;;;;;;5004134;28;20442;-90
2023/09/14 09:05:05;;;;;;;3.25;2.13;;;;;;;;;;5009355;28;20042;-90
2023/09/14 09:07:35;;;;;;;4.03;2.03;;;;;;;;;;5007609;28;20053;-89
2023/09/14 09:10:16;;;;;;;4.82;2.90;;;;;;;;;;5007219;28;20046;-90
2023/09/14 09:12:45;;;;;;;2.22;1.95;;;;;;;;;;5003784;28;20050;-90
2023/09/14 09:15:15;;;;;;;3.13;2.83;;;;;;;;;;5002626;28;20050;-89
2023/09/14 09:17:44;;;;;;;2.45;2.08;;;;;;;;;;5002182;28;20050;-90
2023/09/14 09:20:22;;;;;;;3.53;2.10;;;;;;;;;;5006378;28;20050;-90
2023/09/14 09:22:51;;;;;;;3.88;2.42;;;;;;;;;;5005548;28;20050;-90
2023/09/14 09:25:21;;;;;;;3.38;1.65;;;;;;;;;;5008664;28;20050;-90
2023/09/14 09:27:58;;;;;;;2.85;2.30;;;;;;;;;;5006657;28;20050;-90
2023/09/14 09:30:39;;;;;;;3.97;2.20;;;;;;;;;;4989690;28;20050;-90
2023/09/14 09:33:11;;;;;;;3.05;1.95;;;;;;;;;;5005673;28;20058;-89
2023/09/14 09:35:41;;;;;;;4.30;2.15;;;;;;;;;;5021246;28;20046;-90
2023/09/14 09:38:40;;;;;;;2.25;1.80;;;;;;;;;;5006182;28;20411;-89
2023/09/14 09:41:12;;;;;;;5.38;2.00;;;;;;;;;;5007317;28;20057;-89
2023/09/14 09:47:22;;;;;;;3.15;2.20;;;;;;;;;;4961162;28;20053;-89
2023/09/14 09:56:01;;;;;;;3.13;2.75;;;;;;;;;;5164634;22;20059;-82
2023/09/14 10:12:45;;;;;;;4.22;2.05;;;;;;;;;;4784815;26;20038;-82
2023/09/14 10:15:48;;;;;;;5.43;2.38;;;;;;;;;;5212735;22;20024;-83
2023/09/14 10:50:43;;;;;;;2.20;2.00;;;;;;;;;;6221909;22;1444991;-88
2023/09/14 10:53:14;;;;;;;5.28;2.00;;;;;;;;;;6250087;22;20463;-89
2023/09/14 10:55:44;;;;;;;3.72;2.53;;;;;;;;;;6222106;23;20367;-90
2023/09/14 10:58:12;;;;;;;3.80;2.75;;;;;;;;;;6223556;23;20015;-90
2023/09/14 11:00:42;;;;;;;4.80;2.90;;;;;;;;;;6199110;23;20016;-90
2023/09/14 11:07:39;;;;;;;5.20;3.03;;;;;;;;;;6221943;23;20331;-90
2023/09/14 11:10:23;;;;;;;3.53;2.85;;;;;;;;;;6197976;22;20031;-90
2023/09/14 11:13:30;;;;;;;3.67;2.85;;;;;;;;;;6233781;22;20354;-89
2023/09/14 11:16:05;;;;;;;3.92;2.25;;;;;;;;;;6260098;22;20011;-89
2023/09/14 11:18:51;;;;;;;4.57;2.97;;;;;;;;;;6258762;22;20016;-90
2023/09/14 11:21:43;;;;;;;7.18;3.05;;;;;;;;;;6196736;23;20016;-90
2023/09/14 11:24:13;;;;;;;4.07;3.45;;;;;;;;;;6196218;23;20028;-89
2023/09/14 11:26:54;;;;;;;5.88;3.78;;;;;;;;;;6223575;23;20363;-90
2023/09/14 11:29:27;;;;;;;4.60;3.15;;;;;;;;;;6232946;22;20012;-90
2023/09/14 11:31:56;;;;;;;6.47;2.90;;;;;;;;;;6223566;23;20474;-90
2023/09/14 11:34:24;;;;;;;4.38;3.03;;;;;;;;;;6222040;23;20016;-89
2023/09/14 11:36:53;;;;;;;3.58;2.78;;;;;;;;;;6197696;23;20020;-89
2023/09/14 11:39:25;;;;;;;6.47;3.67;;;;;;;;;;6222325;23;20023;-90
2023/09/14 11:42:37;;;;;;;3.95;2.97;;;;;;;;;;6198269;23;20459;-89
2023/09/14 11:45:22;;;;;;;9.95;3.53;;;;;;;;;;6231547;22;20042;-89
2023/09/14 11:47:52;;;;;;;4.20;2.00;;;;;;;;;;6196892;23;20031;-89
2023/09/14 11:50:21;;;;;;;3.53;2.13;;;;;;;;;;6199024;23;20028;-89
2023/09/14 11:52:51;;;;;;;5.10;2.65;;;;;;;;;;6185940;23;20020;-89
2023/09/14 11:55:21;;;;;;;4.10;2.75;;;;;;;;;;6213662;23;20012;-89
2023/09/14 11:57:49;;;;;;;3.67;2.60;;;;;;;;;;6194725;23;20043;-89
2023/09/14 12:00:21;;;;;;;3.25;2.30;;;;;;;;;;6161341;23;20017;-90
2023/09/14 12:02:49;;;;;;;3.25;2.60;;;;;;;;;;6186721;23;20013;-90
2023/09/14 12:05:16;;;;;;;3.67;2.50;;;;;;;;;;6161752;23;20028;-89
2023/09/14 12:07:44;;;;;;;9.55;2.50;;;;;;;;;;6211708;23;20012;-89
2023/09/14 12:10:18;;;;;;;6.43;3.05;;;;;;;;;;6161234;23;20020;-90
2023/09/14 12:12:50;;;;;;;3.22;2.55;;;;;;;;;;6160454;23;20024;-89
2023/09/14 12:15:18;;;;;;;3.17;2.70;;;;;;;;;;6217396;23;20012;-89
2023/09/14 12:17:58;;;;;;;4.47;2.78;;;;;;;;;;6163143;23;20020;-89
2023/09/14 12:20:26;;;;;;;3.50;2.22;;;;;;;;;;6167567;23;20020;-90
2023/09/14 12:22:55;;;;;;;1.95;1.42;;;;;;;;;;6192871;23;20025;-90
2023/09/14 12:25:23;;;;;;;2.05;1.10;;;;;;;;;;6196906;23;20021;-89
2023/09/14 12:27:51;;;;;;;2.78;1.23;;;;;;;;;;6172072;23;20076;-89
2023/09/14 12:30:24;;;;;;;4.47;1.80;;;;;;;;;;6161788;23;20359;-90
2023/09/14 12:32:54;;;;;;;2.05;1.48;;;;;;;;;;6187151;23;20024;-89
2023/09/14 12:35:24;;;;;;;1.55;1.45;;;;;;;;;;6161186;23;20027;-89
2023/09/14 12:37:54;;;;;;;3.15;1.50;;;;;;;;;;6160059;23;20032;-90
2023/09/14 12:40:25;;;;;;;2.83;1.27;;;;;;;;;;6161348;23;20020;-90
2023/09/14 12:42:54;;;;;;;3.13;1.38;;;;;;;;;;6212761;23;20017;-90
2023/09/14 12:45:21;;;;;;;2.47;1.67;;;;;;;;;;6186010;23;20021;-89
2023/09/14 12:47:49;;;;;;;1.80;1.27;;;;;;;;;;6185856;23;20013;-90
2023/09/14 12:50:21;;;;;;;3.75;1.75;;;;;;;;;;6205665;22;20027;-89
2023/09/14 12:52:49;;;;;;;3.03;0.93;;;;;;;;;;6217083;23;20012;-90
2023/09/14 12:55:18;;;;;;;1.45;1.05;;;;;;;;;;6242986;23;20016;-89
2023/09/14 12:57:47;;;;;;;2.75;1.35;;;;;;;;;;6215021;23;20043;-89
2023/09/14 13:00:17;;;;;;;3.67;1.30;;;;;;;;;;6251600;22;20016;-90
2023/09/14 13:02:46;;;;;;;2.00;1.13;;;;;;;;;;6225644;23;20012;-90
2023/09/14 13:05:16;;;;;;;1.88;1.23;;;;;;;;;;6253573;23;20415;-90
2023/09/14 13:07:48;;;;;;;3.63;1.60;;;;;;;;;;6243360;23;20487;-90
2023/09/14 13:10:19;;;;;;;1.57;1.03;;;;;;;;;;6189196;22;20023;-90
2023/09/14 13:12:51;;;;;;;9.02;1.58;;;;;;;;;;6216490;23;20479;-89
2023/09/14 13:15:26;;;;;;;4.03;1.48;;;;;;;;;;6214104;23;20020;-90
2023/09/14 13:17:54;;;;;;;3.63;1.92;;;;;;;;;;6190265;23;20024;-90
2023/09/14 13:20:25;;;;;;;2.00;1.23;;;;;;;;;;6191681;22;20024;-90
2023/09/14 13:22:52;;;;;;;2.30;1.38;;;;;;;;;;6215358;23;20016;-90
2023/09/14 13:25:20;;;;;;;1.63;1.38;;;;;;;;;;6215119;23;20027;-90
2023/09/14 13:27:47;;;;;;;4.47;1.20;;;;;;;;;;6190369;23;20019;-90
2023/09/14 13:30:17;;;;;;;2.67;1.20;;;;;;;;;;6243007;22;20031;-89
2023/09/14 13:32:46;;;;;;;1.65;1.33;;;;;;;;;;6191049;23;20023;-91
2023/09/14 13:35:17;;;;;;;1.73;1.17;;;;;;;;;;6216068;23;20016;-90
2023/09/14 13:37:45;;;;;;;2.97;1.25;;;;;;;;;;6216155;23;20019;-89
2023/09/14 13:40:18;;;;;;;1.63;1.05;;;;;;;;;;6216223;22;20019;-90
2023/09/14 13:42:46;;;;;;;1.45;1.10;;;;;;;;;;6216515;23;20024;-90
2023/09/14 13:45:14;;;;;;;1.60;1.15;;;;;;;;;;6253214;23;20012;-90
2023/09/14 13:47:42;;;;;;;3.72;1.30;;;;;;;;;;6217011;23;20016;-89
2023/09/14 13:50:11;;;;;;;1.30;1.20;;;;;;;;;;6198085;23;20020;-90
2023/09/14 13:52:41;;;;;;;3.53;1.73;;;;;;;;;;6196852;23;20020;-90
2023/09/14 13:55:09;;;;;;;2.38;1.30;;;;;;;;;;6213889;23;20024;-90
2023/09/14 13:57:38;;;;;;;3.25;2.25;;;;;;;;;;6162230;23;20013;-90
2023/09/14 14:00:08;;;;;;;1.25;0.90;;;;;;;;;;6163607;23;20375;-92
2023/09/14 14:02:42;;;;;;;1.73;1.27;;;;;;;;;;6164283;23;20024;-90
2023/09/14 14:05:14;;;;;;;2.75;1.20;;;;;;;;;;6196235;23;20017;-89
2023/09/14 14:07:41;;;;;;;3.10;1.50;;;;;;;;;;6195938;23;20357;-90
2023/09/14 14:10:09;;;;;;;3.90;2.15;;;;;;;;;;6186371;23;20013;-90
2023/09/14 14:12:39;;;;;;;1.90;1.52;;;;;;;;;;6212339;23;20024;-90
2023/09/14 14:15:08;;;;;;;1.55;1.27;;;;;;;;;;6186222;23;20021;-92
2023/09/14 14:17:36;;;;;;;2.70;1.40;;;;;;;;;;6161226;23;20468;-89
2023/09/14 14:20:08;;;;;;;3.63;1.50;;;;;;;;;;6160846;23;20065;-89
2023/09/14 14:22:37;;;;;;;3.00;1.27;;;;;;;;;;6186488;23;20016;-90
2023/09/14 14:25:05;;;;;;;2.45;1.15;;;;;;;;;;6212918;23;20012;-90
2023/09/14 14:27:38;;;;;;;4.57;1.40;;;;;;;;;;6186299;23;20032;-90
2023/09/14 14:30:07;;;;;;;3.72;1.88;;;;;;;;;;6162410;23;20042;-90
2023/09/14 14:32:35;;;;;;;4.55;1.55;;;;;;;;;;6162198;23;20020;-90
2023/09/14 14:35:06;;;;;;;2.60;1.80;;;;;;;;;;6162343;23;20035;-90
2023/09/14 14:37:37;;;;;;;2.92;1.70;;;;;;;;;;6162514;23;20032;-90
2023/09/14 14:40:06;;;;;;;2.15;1.42;;;;;;;;;;6188060;23;20021;-91
2023/09/14 14:42:34;;;;;;;8.30;1.55;;;;;;;;;;6188460;23;20031;-88
2023/09/14 14:45:06;;;;;;;3.30;1.55;;;;;;;;;;6187268;23;20017;-90
2023/09/14 14:47:36;;;;;;;3.03;1.50;;;;;;;;;;6196560;23;20017;-90
2023/09/14 14:50:04;;;;;;;3.75;1.60;;;;;;;;;;6179497;22;20013;-90
2023/09/14 14:52:32;;;;;;;1.63;1.33;;;;;;;;;;6216851;23;20030;-89
2023/09/14 14:55:05;;;;;;;2.97;1.48;;;;;;;;;;6191595;23;20028;-91
2023/09/14 14:57:34;;;;;;;2.80;1.67;;;;;;;;;;6227678;23;20374;-89
2023/09/14 15:00:03;;;;;;;5.32;1.98;;;;;;;;;;6192241;22;20020;-89
2023/09/14 15:02:31;;;;;;;6.38;2.10;;;;;;;;;;6216120;23;20471;-90
2023/09/14 15:05:00;;;;;;;4.55;1.63;;;;;;;;;;6190409;23;20034;-90
2023/09/14 15:07:28;;;;;;;1.55;1.25;;;;;;;;;;6215431;23;20479;-90
2023/09/14 15:09:56;;;;;;;4.00;1.45;;;;;;;;;;6216141;23;20027;-90
2023/09/14 15:12:25;;;;;;;4.75;2.05;;;;;;;;;;6243425;22;20019;-91
2023/09/14 15:14:52;;;;;;;2.00;1.33;;;;;;;;;;6243552;23;20012;-90
2023/09/14 15:17:19;;;;;;;2.30;1.42;;;;;;;;;;6190298;23;20367;-91
2023/09/14 15:19:47;;;;;;;5.22;1.77;;;;;;;;;;6243490;23;20014;-92
2023/09/14 15:22:17;;;;;;;1.73;1.20;;;;;;;;;;6215884;23;20016;-91
2023/09/14 15:24:45;;;;;;;2.10;1.33;;;;;;;;;;6216720;23;20039;-90
2023/09/14 15:27:12;;;;;;;1.63;1.40;;;;;;;;;;6244358;23;20016;-90
2023/09/14 15:29:42;;;;;;;1.83;1.40;;;;;;;;;;6244960;23;20020;-91
2023/09/14 15:32:12;;;;;;;2.80;1.73;;;;;;;;;;6218352;23;20027;-89
2023/09/14 15:34:40;;;;;;;4.22;2.38;;;;;;;;;;6218206;23;20016;-90
2023/09/14 15:37:07;;;;;;;2.00;1.60;;;;;;;;;;6218428;23;20470;-90
2023/09/14 15:39:37;;;;;;;2.95;1.23;;;;;;;;;;6245434;23;20062;-89
2023/09/14 15:42:05;;;;;;;4.43;1.60;;;;;;;;;;6246271;22;20008;-89
2023/09/14 15:44:33;;;;;;;1.88;1.40;;;;;;;;;;6194030;23;20024;-90
2023/09/14 15:47:02;;;;;;;2.05;1.75;;;;;;;;;;6220028;23;20026;-90
2023/09/14 15:49:30;;;;;;;1.77;1.08;;;;;;;;;;6252778;23;20027;-91
2023/09/14 15:51:58;;;;;;;2.30;1.38;;;;;;;;;;6227593;23;20035;-92
2023/09/14 15:54:28;;;;;;;2.45;1.80;;;;;;;;;;6216767;23;20012;-90
2023/09/14 15:57:00;;;;;;;3.75;2.15;;;;;;;;;;6191995;23;20020;-89
2023/09/14 15:59:27;;;;;;;1.77;1.15;;;;;;;;;;6218182;23;20016;-90
2023/09/14 16:01:55;;;;;;;2.90;1.25;;;;;;;;;;6217936;23;20032;-90
2023/09/14 16:04:24;;;;;;;2.30;1.30;;;;;;;;;;6192946;23;20028;-89
2023/09/14 16:06:51;;;;;;;1.92;1.17;;;;;;;;;;6191204;23;20039;-89
2023/09/14 16:09:21;;;;;;;2.35;1.80;;;;;;;;;;6192722;23;20035;-88
2023/09/14 16:11:53;;;;;;;2.88;1.23;;;;;;;;;;6192605;23;20039;-91
2023/09/14 16:14:21;;;;;;;2.17;1.40;;;;;;;;;;6217527;23;20039;-89
2023/09/14 16:16:48;;;;;;;2.60;1.35;;;;;;;;;;6217727;23;20020;-90
2023/09/14 16:19:16;;;;;;;3.95;1.23;;;;;;;;;;6193603;23;20016;-90
2023/09/14 16:21:45;;;;;;;4.20;1.60;;;;;;;;;;6193615;23;20035;-90